Time;durP1;ratioP1;P1;durP2;ratioP2;P2;SDS_P1;SDS_P2;PMS_P1;PMS_P2;Temp;Humidity;BMP_temperature;BMP_pressure;BME280_temperature;BME280_humidity;BME280_pressure;Samples;Min_cycle;Max_cycle;Signal;HPM_P1;HPM_P2
2022/12/29 00:01:41;;;;;;;8.63;4.50;;;-0.90;99.90;;;;;;6261212;23;20147;-60
2022/12/29 00:04:14;;;;;;;7.70;4.82;;;-1.00;99.90;;;;;;6271774;23;19999;-60
2022/12/29 00:06:45;;;;;;;12.73;5.55;;;-1.00;99.90;;;;;;6261347;23;20006;-61
2022/12/29 00:09:17;;;;;;;7.25;4.88;;;-1.10;99.90;;;;;;6237992;23;20009;-60
2022/12/29 00:11:49;;;;;;;7.88;4.38;;;-1.20;99.90;;;;;;6263189;23;20009;-60
2022/12/29 00:17:14;;;;;;;10.93;4.97;;;-1.20;99.90;;;;;;6264344;23;19999;-61
2022/12/29 00:37:00;;;;;;;10.65;5.18;;;-1.20;99.90;;;;;;6386826;23;20070;-58
2022/12/29 00:45:17;;;;;;;13.00;5.97;;;-1.10;99.90;;;;;;6387037;23;20003;-60
2022/12/29 00:47:55;;;;;;;9.05;5.65;;;-1.10;99.90;;;;;;6238093;23;20009;-61
2022/12/29 00:50:28;;;;;;;11.50;7.38;;;-1.00;99.90;;;;;;6263764;23;19998;-60
2022/12/29 00:53:05;;;;;;;9.05;6.15;;;-1.00;99.90;;;;;;6262435;23;20005;-61
2022/12/29 00:55:40;;;;;;;12.15;7.30;;;-0.90;99.90;;;;;;6236682;23;20007;-60
2022/12/29 00:58:11;;;;;;;8.93;6.20;;;-0.90;99.90;;;;;;6261311;23;20046;-61
2022/12/29 01:00:43;;;;;;;12.15;6.05;;;-0.90;99.90;;;;;;6263043;23;20036;-61
2022/12/29 01:03:14;;;;;;;11.98;5.80;;;-0.90;99.90;;;;;;6277002;23;20074;-76
2022/12/29 01:05:48;;;;;;;12.55;7.25;;;-1.00;99.90;;;;;;6247100;23;20110;-79
2022/12/29 01:08:22;;;;;;;10.95;6.75;;;-1.10;99.90;;;;;;6255099;23;20054;-80
2022/12/29 01:11:05;;;;;;;10.85;6.15;;;-1.10;99.90;;;;;;6281512;23;20034;-77
2022/12/29 01:13:42;;;;;;;11.40;6.72;;;-1.10;99.90;;;;;;6281208;23;20050;-80
2022/12/29 01:16:13;;;;;;;13.68;6.43;;;-1.10;99.90;;;;;;6279020;23;20567;-78
2022/12/29 01:18:50;;;;;;;12.65;7.28;;;-1.10;99.90;;;;;;6278871;23;20047;-79
2022/12/29 01:21:24;;;;;;;11.73;7.03;;;-1.10;99.90;;;;;;6303156;23;20051;-79
2022/12/29 01:23:56;;;;;;;16.20;7.40;;;-1.20;99.90;;;;;;6280217;23;20049;-81
2022/12/29 01:26:28;;;;;;;10.07;5.97;;;-1.20;99.90;;;;;;6280162;23;20038;-81
2022/12/29 01:28:59;;;;;;;12.52;6.45;;;-1.20;99.90;;;;;;6279195;23;20055;-79
2022/12/29 01:31:30;;;;;;;9.93;6.35;;;-1.20;99.90;;;;;;6279209;23;20005;-80
2022/12/29 01:34:07;;;;;;;22.17;7.75;;;-1.20;99.90;;;;;;6254515;23;20050;-81
2022/12/29 01:36:39;;;;;;;11.50;6.32;;;-1.20;99.90;;;;;;6254960;23;20046;-77
2022/12/29 01:39:15;;;;;;;11.88;6.60;;;-1.20;99.90;;;;;;6302415;23;20046;-79
2022/12/29 01:41:49;;;;;;;10.80;6.32;;;-1.20;99.90;;;;;;6352079;23;20050;-80
2022/12/29 01:44:46;;;;;;;11.55;6.68;;;-1.20;99.90;;;;;;6279762;23;20103;-78
2022/12/29 01:47:31;;;;;;;13.38;5.95;;;-1.30;99.90;;;;;;6277810;23;20071;-76
2022/12/29 01:50:10;;;;;;;11.38;6.35;;;-1.40;99.90;;;;;;6288781;23;20052;-79
2022/12/29 01:52:59;;;;;;;10.18;5.63;;;-1.40;99.90;;;;;;6276477;23;20021;-79
2022/12/29 01:55:38;;;;;;;8.82;5.72;;;-1.30;99.90;;;;;;6278256;23;20047;-80
2022/12/29 01:58:14;;;;;;;11.75;5.78;;;-1.40;99.90;;;;;;6278121;23;20054;-78
2022/12/29 02:00:48;;;;;;;10.52;5.90;;;-1.50;99.90;;;;;;6278546;23;20414;-81
2022/12/29 02:03:21;;;;;;;9.35;5.97;;;-1.50;99.90;;;;;;6277613;23;20058;-81
2022/12/29 02:06:06;;;;;;;14.10;6.30;;;-1.40;99.90;;;;;;6293132;22;20073;-81
2022/12/29 02:08:44;;;;;;;11.90;6.78;;;-1.40;99.90;;;;;;6253528;23;20095;-79
2022/12/29 02:11:18;;;;;;;13.00;6.68;;;-1.40;99.90;;;;;;6277812;23;20090;-78
2022/12/29 02:13:55;;;;;;;11.63;6.30;;;-1.40;99.90;;;;;;6277895;23;20213;-79
2022/12/29 02:17:07;;;;;;;12.10;7.25;;;-1.50;99.90;;;;;;6301748;23;20066;-78
2022/12/29 02:19:47;;;;;;;12.52;5.65;;;-1.50;99.90;;;;;;6278938;23;20070;-81
2022/12/29 02:22:21;;;;;;;10.73;6.15;;;-1.40;99.90;;;;;;6253589;23;20058;-80
2022/12/29 02:24:55;;;;;;;12.50;6.35;;;-1.40;99.90;;;;;;6253331;23;20066;-81
2022/12/29 02:27:51;;;;;;;10.25;6.15;;;-1.30;99.90;;;;;;6253827;23;20536;-79
2022/12/29 02:30:31;;;;;;;10.82;6.20;;;-1.30;99.90;;;;;;6303570;23;20054;-81
2022/12/29 02:33:08;;;;;;;10.68;6.30;;;-1.30;99.90;;;;;;6254801;23;20009;-79
2022/12/29 02:35:54;;;;;;;11.38;6.25;;;-1.30;99.90;;;;;;6278018;23;20058;-84
2022/12/29 02:38:54;;;;;;;14.73;6.75;;;-1.20;99.90;;;;;;6254207;23;20054;-79
2022/12/29 02:41:35;;;;;;;9.07;5.32;;;-1.20;99.90;;;;;;6279937;23;20061;-79
2022/12/29 02:44:27;;;;;;;10.75;6.03;;;-1.10;99.90;;;;;;6278493;23;20058;-80
2022/12/29 02:47:30;;;;;;;10.63;7.13;;;-1.10;99.90;;;;;;6281068;23;20071;-82
2022/12/29 02:50:31;;;;;;;11.38;5.82;;;-1.10;99.90;;;;;;6301837;23;20062;-78
2022/12/29 02:53:07;;;;;;;10.93;6.20;;;-1.00;99.90;;;;;;6283204;23;20017;-80
2022/12/29 02:55:58;;;;;;;11.40;4.85;;;-1.10;99.90;;;;;;6278904;23;20018;-84
2022/12/29 02:58:30;;;;;;;13.57;6.45;;;-1.10;99.90;;;;;;6302049;23;20062;-79
2022/12/29 03:01:20;;;;;;;9.95;6.00;;;-1.20;99.90;;;;;;6254266;23;20054;-81
2022/12/29 03:04:12;;;;;;;9.25;5.82;;;-1.20;99.90;;;;;;6278756;23;20062;-79
2022/12/29 03:07:01;;;;;;;11.40;6.60;;;-1.10;99.90;;;;;;6264119;23;20022;-80
2022/12/29 03:10:21;;;;;;;12.07;6.57;;;-1.20;99.90;;;;;;6281236;23;20050;-80
2022/12/29 03:16:04;;;;;;;12.45;6.43;;;-1.20;99.90;;;;;;6278927;23;20054;-79
2022/12/29 03:18:50;;;;;;;10.20;6.03;;;-1.30;99.90;;;;;;6302346;23;20050;-80
2022/12/29 03:24:38;;;;;;;12.98;6.05;;;-1.20;99.90;;;;;;6279454;23;20516;-80
2022/12/29 03:27:15;;;;;;;13.13;5.82;;;-1.20;99.90;;;;;;6255031;23;20480;-82
2022/12/29 03:29:54;;;;;;;12.73;6.57;;;-1.20;99.90;;;;;;6280037;23;20050;-77
2022/12/29 03:32:53;;;;;;;11.90;6.70;;;-1.20;99.90;;;;;;6279171;23;19999;-80
2022/12/29 03:35:29;;;;;;;9.68;5.32;;;-1.20;99.90;;;;;;6278341;23;20046;-78
2022/12/29 03:38:14;;;;;;;10.90;6.40;;;-1.30;99.90;;;;;;6277931;23;20066;-80
2022/12/29 03:40:49;;;;;;;;;;;-1.30;99.90;;;;;;6278165;23;20058;-79
2022/12/29 03:43:23;;;;;;;10.20;5.60;;;-1.30;99.90;;;;;;6278958;23;19945;-80
2022/12/29 03:45:58;;;;;;;;;;;-1.40;99.90;;;;;;6279022;23;20042;-79
2022/12/29 03:48:30;;;;;;;9.15;5.22;;;-1.40;99.90;;;;;;6301668;23;19948;-78
2022/12/29 03:51:06;;;;;;;7.90;4.88;;;-1.50;99.90;;;;;;6303622;23;20414;-82
2022/12/29 03:53:37;;;;;;;12.57;5.85;;;-1.50;99.90;;;;;;6254379;23;20003;-79
2022/12/29 03:56:22;;;;;;;9.20;5.97;;;-1.50;99.90;;;;;;6253224;23;20058;-79
2022/12/29 03:58:54;;;;;;;10.05;6.38;;;-1.60;99.90;;;;;;6352523;23;20062;-79
2022/12/29 04:01:27;;;;;;;10.95;6.50;;;-1.60;99.90;;;;;;6353605;23;20058;-82
2022/12/29 04:03:58;;;;;;;10.23;6.33;;;-1.60;99.90;;;;;;6256249;23;20058;-79
2022/12/29 04:06:29;;;;;;;13.93;6.68;;;-1.60;99.90;;;;;;6242373;23;20070;-81
2022/12/29 04:09:04;;;;;;;9.52;5.97;;;-1.70;99.90;;;;;;6279295;23;20089;-79
2022/12/29 04:11:35;;;;;;;;;;;-1.70;99.90;;;;;;6280802;23;20086;-78
2022/12/29 04:14:09;;;;;;;8.40;5.17;;;-1.70;99.90;;;;;;6279622;23;19902;-81
2022/12/29 04:16:40;;;;;;;7.13;5.00;;;-1.70;99.90;;;;;;6255750;23;20221;-82
2022/12/29 04:19:12;;;;;;;10.05;5.47;;;-1.70;99.90;;;;;;6281046;23;20050;-80
2022/12/29 04:21:43;;;;;;;10.98;5.82;;;-1.70;99.90;;;;;;6254645;23;20082;-78
2022/12/29 04:24:17;;;;;;;13.63;6.88;;;-1.80;99.90;;;;;;6254215;23;20066;-79
2022/12/29 04:26:48;;;;;;;13.57;6.53;;;-1.70;99.90;;;;;;6279177;23;20066;-76
2022/12/29 04:29:22;;;;;;;10.43;6.97;;;-1.80;99.90;;;;;;6254720;23;20701;-83
2022/12/29 04:31:54;;;;;;;10.50;6.65;;;-1.80;99.90;;;;;;6353015;23;20062;-77
2022/12/29 04:34:25;;;;;;;10.15;6.70;;;-1.90;99.90;;;;;;6255901;23;20078;-82
2022/12/29 04:36:57;;;;;;;10.93;6.37;;;-1.90;99.90;;;;;;6256930;23;20066;-80
2022/12/29 04:39:30;;;;;;;12.15;7.03;;;-1.90;99.90;;;;;;6255459;23;20050;-80
2022/12/29 04:42:01;;;;;;;9.60;6.70;;;-1.80;99.90;;;;;;6280073;23;20046;-79
2022/12/29 04:44:34;;;;;;;11.30;7.45;;;-1.70;99.90;;;;;;6255979;23;20050;-80
2022/12/29 04:47:10;;;;;;;12.45;6.28;;;-1.70;99.90;;;;;;6255934;23;20043;-78
2022/12/29 04:49:42;;;;;;;16.85;7.45;;;-1.80;99.90;;;;;;6256820;23;20058;-83
2022/12/29 04:52:13;;;;;;;15.20;7.28;;;-1.80;99.90;;;;;;6279158;23;20066;-81
2022/12/29 04:54:45;;;;;;;13.70;6.72;;;-1.80;99.90;;;;;;6255232;23;20478;-84
2022/12/29 04:57:18;;;;;;;10.35;6.72;;;-1.80;99.90;;;;;;6254382;23;20053;-80
2022/12/29 04:59:49;;;;;;;13.52;7.43;;;-1.80;99.90;;;;;;6254986;23;20050;-80
2022/12/29 05:02:23;;;;;;;12.97;7.60;;;-1.80;99.90;;;;;;6254485;23;20013;-80
2022/12/29 05:04:55;;;;;;;15.32;7.25;;;-1.90;99.90;;;;;;6246654;23;20011;-79
2022/12/29 05:07:26;;;;;;;15.05;7.18;;;-2.00;99.90;;;;;;6253851;23;20411;-81
2022/12/29 05:09:59;;;;;;;11.55;7.22;;;-2.00;99.90;;;;;;6257521;23;20062;-78
2022/12/29 05:12:34;;;;;;;8.77;5.75;;;-1.90;99.90;;;;;;6280780;23;20009;-81
2022/12/29 05:15:10;;;;;;;11.32;6.70;;;-1.90;99.90;;;;;;6280559;23;20014;-81
2022/12/29 05:17:41;;;;;;;11.38;6.47;;;-1.90;99.90;;;;;;6279983;23;20054;-81
2022/12/29 05:20:17;;;;;;;11.70;7.40;;;-1.90;99.90;;;;;;6280747;23;20150;-82
2022/12/29 05:22:49;;;;;;;11.32;6.25;;;-2.00;99.90;;;;;;6255899;23;20054;-83
2022/12/29 05:25:22;;;;;;;9.63;6.38;;;-2.00;99.90;;;;;;6253938;23;20058;-81
2022/12/29 05:27:56;;;;;;;12.23;7.40;;;-2.10;99.90;;;;;;6276705;23;20062;-81
2022/12/29 05:30:30;;;;;;;10.60;6.97;;;-2.10;99.90;;;;;;6253566;23;20050;-83
2022/12/29 05:33:01;;;;;;;13.68;7.10;;;-2.00;99.90;;;;;;6254686;23;20297;-80
2022/12/29 05:35:33;;;;;;;12.23;7.28;;;-1.90;99.90;;;;;;6255992;23;20050;-80
2022/12/29 05:38:09;;;;;;;16.37;8.10;;;-1.90;99.90;;;;;;6279348;23;20051;-80
2022/12/29 05:40:40;;;;;;;14.20;8.60;;;-2.00;99.90;;;;;;6277499;23;20067;-78
2022/12/29 05:43:11;;;;;;;14.07;8.23;;;-2.00;99.90;;;;;;6253094;23;20050;-79
2022/12/29 05:45:48;;;;;;;14.70;8.23;;;-2.10;99.90;;;;;;6277226;23;20050;-81
2022/12/29 05:48:21;;;;;;;13.40;7.43;;;-2.10;99.90;;;;;;6278376;23;20130;-79
2022/12/29 05:50:53;;;;;;;13.73;7.82;;;-2.10;99.90;;;;;;6253663;23;20252;-81
2022/12/29 05:53:24;;;;;;;11.70;8.27;;;-2.10;99.90;;;;;;6279227;23;20054;-79
2022/12/29 05:55:58;;;;;;;12.20;7.47;;;-2.10;99.90;;;;;;6354895;23;20066;-84
2022/12/29 05:58:32;;;;;;;12.23;6.20;;;-2.20;99.90;;;;;;6257078;23;20058;-82
2022/12/29 06:01:03;;;;;;;12.00;6.93;;;-2.20;99.90;;;;;;6278140;23;20050;-83
2022/12/29 06:03:39;;;;;;;13.07;6.60;;;-2.20;99.90;;;;;;6252470;23;20070;-77
2022/12/29 06:06:12;;;;;;;13.20;7.73;;;-2.10;99.90;;;;;;6247313;23;20066;-82
2022/12/29 06:08:46;;;;;;;11.13;6.60;;;-2.20;99.90;;;;;;6277376;23;20050;-82
2022/12/29 06:11:21;;;;;;;11.73;6.97;;;-2.20;99.90;;;;;;6278370;23;20410;-80
2022/12/29 06:13:52;;;;;;;11.15;6.70;;;-2.30;99.90;;;;;;6280250;23;19999;-78
2022/12/29 06:16:23;;;;;;;12.93;7.00;;;-2.30;99.90;;;;;;6256984;23;20055;-83
2022/12/29 06:18:56;;;;;;;12.57;7.22;;;-2.30;99.90;;;;;;6258763;23;20425;-81
2022/12/29 06:21:32;;;;;;;10.07;5.97;;;-2.40;99.90;;;;;;6256873;23;20050;-82
2022/12/29 06:24:07;;;;;;;10.05;6.85;;;-2.40;99.90;;;;;;6280492;23;20055;-79
2022/12/29 06:26:47;;;;;;;9.18;6.55;;;-2.40;99.90;;;;;;6304611;23;20054;-78
2022/12/29 06:29:20;;;;;;;11.80;6.47;;;-2.30;99.90;;;;;;6280354;23;20079;-79
2022/12/29 06:31:57;;;;;;;8.10;5.18;;;-2.20;99.90;;;;;;6280196;23;20402;-82
2022/12/29 06:34:30;;;;;;;13.20;6.60;;;-2.20;99.90;;;;;;6280574;23;20070;-79
2022/12/29 06:37:04;;;;;;;13.88;6.18;;;-2.20;99.90;;;;;;6280790;23;20070;-79
2022/12/29 06:39:37;;;;;;;;;;;-2.20;99.90;;;;;;6305709;23;20066;-79
2022/12/29 06:42:09;;;;;;;8.87;5.20;;;-2.30;99.90;;;;;;6304123;23;20327;-79
2022/12/29 06:44:44;;;;;;;8.00;4.90;;;-2.30;99.90;;;;;;6309837;23;20043;-81
2022/12/29 06:47:18;;;;;;;11.18;6.25;;;-2.30;99.90;;;;;;6365914;23;20051;-82
2022/12/29 06:49:49;;;;;;;12.65;7.15;;;-2.30;99.90;;;;;;6268670;23;20078;-79
2022/12/29 06:52:21;;;;;;;13.70;6.97;;;-2.20;99.90;;;;;;6265056;23;20062;-81
2022/12/29 06:54:52;;;;;;;13.50;7.47;;;-2.20;99.90;;;;;;6287800;23;20046;-81
2022/12/29 06:57:26;;;;;;;9.88;6.28;;;-2.20;99.90;;;;;;6265852;23;20058;-79
2022/12/29 07:00:02;;;;;;;13.75;6.55;;;-2.10;99.90;;;;;;6267306;23;20129;-78
2022/12/29 07:02:35;;;;;;;9.03;6.13;;;-2.10;99.90;;;;;;6361377;23;20082;-82
2022/12/29 07:05:08;;;;;;;12.32;7.05;;;-2.10;99.90;;;;;;6254169;23;20074;-80
2022/12/29 07:07:42;;;;;;;13.95;7.38;;;-2.00;99.90;;;;;;6258233;23;20050;-79
2022/12/29 07:10:16;;;;;;;21.95;9.20;;;-1.90;99.90;;;;;;6290061;23;20330;-80
2022/12/29 07:12:47;;;;;;;10.15;6.75;;;-1.90;99.90;;;;;;6255808;23;20373;-81
2022/12/29 07:15:18;;;;;;;18.35;7.25;;;-1.90;99.90;;;;;;6279771;23;20051;-80
2022/12/29 07:17:49;;;;;;;10.55;6.22;;;-1.80;99.90;;;;;;6257318;23;20054;-78
2022/12/29 07:20:21;;;;;;;15.75;8.38;;;-1.70;99.90;;;;;;6280384;23;20166;-79
2022/12/29 07:22:54;;;;;;;14.55;8.30;;;-1.50;99.90;;;;;;6249978;23;20463;-79
2022/12/29 07:25:29;;;;;;;17.70;9.63;;;-1.30;99.90;;;;;;6280712;23;20050;-79
2022/12/29 07:28:07;;;;;;;24.45;10.70;;;-1.20;99.90;;;;;;6243319;23;20077;-82
2022/12/29 07:30:39;;;;;;;28.52;10.30;;;-1.00;99.90;;;;;;6249403;23;20001;-81
2022/12/29 07:33:15;;;;;;;31.52;11.85;;;-0.90;99.90;;;;;;6239381;23;20218;-80
2022/12/29 07:35:58;;;;;;;35.03;11.15;;;-0.80;99.90;;;;;;6253851;23;20054;-77
2022/12/29 07:38:29;;;;;;;51.00;12.18;;;-0.60;99.90;;;;;;6264148;23;20007;-80
2022/12/29 07:41:03;;;;;;;26.90;10.93;;;-0.60;99.90;;;;;;6276924;23;20001;-80
2022/12/29 07:43:39;;;;;;;30.42;11.98;;;-0.50;99.90;;;;;;6239977;23;20041;-79
2022/12/29 07:46:15;;;;;;;48.97;12.52;;;-0.40;99.90;;;;;;6255385;23;20058;-81
2022/12/29 07:48:47;;;;;;;48.38;11.38;;;-0.20;99.90;;;;;;6216343;23;20106;-80
2022/12/29 07:51:18;;;;;;;23.90;13.23;;;-0.10;99.90;;;;;;6253431;23;20492;-82
2022/12/29 07:53:50;;;;;;;36.78;13.63;;;0.10;99.90;;;;;;6262686;23;20010;-81
2022/12/29 07:56:28;;;;;;;27.17;13.52;;;0.20;99.90;;;;;;6253595;23;20396;-81
2022/12/29 07:59:03;;;;;;;50.53;12.15;;;0.30;99.90;;;;;;6263626;23;20069;-79
2022/12/29 08:01:34;;;;;;;37.20;13.38;;;0.40;99.90;;;;;;6277195;23;20056;-78
2022/12/29 08:04:11;;;;;;;25.20;11.32;;;0.40;99.90;;;;;;6240780;23;20595;-79
2022/12/29 08:06:45;;;;;;;31.52;11.75;;;0.40;99.90;;;;;;6263180;23;20074;-79
2022/12/29 08:09:16;;;;;;;42.00;12.13;;;0.40;99.90;;;;;;6263816;23;20391;-80
2022/12/29 08:11:49;;;;;;;44.65;10.73;;;0.40;99.90;;;;;;6253429;23;20078;-79
2022/12/29 08:14:21;;;;;;;38.13;9.63;;;0.40;99.90;;;;;;6364592;23;20628;-79
2022/12/29 08:16:58;;;;;;;39.60;11.20;;;0.40;99.90;;;;;;6301796;23;20061;-79
2022/12/29 08:19:29;;;;;;;25.70;10.75;;;0.40;99.90;;;;;;6240712;23;20063;-80
2022/12/29 08:22:02;;;;;;;46.15;9.68;;;0.30;99.90;;;;;;6277231;23;20001;-80
2022/12/29 08:24:36;;;;;;;53.20;11.52;;;0.30;99.90;;;;;;6239939;23;20224;-80
2022/12/29 08:27:12;;;;;;;19.67;10.55;;;0.30;99.90;;;;;;6253906;23;20067;-80
2022/12/29 08:29:43;;;;;;;27.58;10.85;;;0.40;99.90;;;;;;6240344;23;20118;-77
2022/12/29 08:32:18;;;;;;;20.15;9.75;;;0.50;99.90;;;;;;6300621;23;20057;-79
2022/12/29 08:34:49;;;;;;;;;;;0.40;99.90;;;;;;6288452;22;20029;-77
2022/12/29 08:37:25;;;;;;;27.38;10.20;;;0.50;99.90;;;;;;6276889;23;20125;-78
2022/12/29 08:40:03;;;;;;;33.38;11.05;;;0.50;99.90;;;;;;6288083;22;20070;-79
2022/12/29 08:42:34;;;;;;;25.35;10.27;;;0.50;99.90;;;;;;6253897;23;20061;-76
2022/12/29 08:45:07;;;;;;;23.77;10.93;;;0.50;99.90;;;;;;6287827;23;20066;-80
2022/12/29 08:47:41;;;;;;;27.85;11.80;;;0.50;99.90;;;;;;6277091;23;20484;-78
2022/12/29 08:50:18;;;;;;;21.33;11.25;;;0.60;99.90;;;;;;6289672;22;20062;-79
2022/12/29 08:52:52;;;;;;;26.77;12.48;;;0.60;99.90;;;;;;6254290;23;20059;-81
2022/12/29 08:55:23;;;;;;;25.55;11.73;;;0.80;99.90;;;;;;6264055;23;20071;-78
2022/12/29 08:57:54;;;;;;;18.95;11.15;;;1.00;99.90;;;;;;6278734;23;20046;-81
2022/12/29 09:00:28;;;;;;;25.23;11.32;;;1.10;99.90;;;;;;6227436;23;20082;-78
2022/12/29 09:03:02;;;;;;;25.98;12.02;;;1.40;99.90;;;;;;6276662;23;20074;-78
2022/12/29 09:05:37;;;;;;;18.65;10.02;;;1.50;99.90;;;;;;6218625;23;20069;-77
2022/12/29 09:08:09;;;;;;;18.83;10.45;;;1.80;99.90;;;;;;6226019;23;20007;-80
2022/12/29 09:10:45;;;;;;;24.35;12.05;;;1.90;99.90;;;;;;6254172;23;20061;-81
2022/12/29 09:13:19;;;;;;;20.95;10.00;;;1.90;99.90;;;;;;6280768;23;20062;-77
2022/12/29 09:16:01;;;;;;;21.88;11.38;;;1.80;99.90;;;;;;6254300;23;20066;-82
2022/12/29 09:18:37;;;;;;;18.20;9.07;;;1.60;99.90;;;;;;6253885;23;20058;-79
2022/12/29 09:21:10;;;;;;;25.65;10.75;;;1.70;99.90;;;;;;6277564;23;20054;-77
2022/12/29 09:23:41;;;;;;;17.55;8.65;;;1.80;99.90;;;;;;6277956;23;20093;-79
2022/12/29 09:26:14;;;;;;;18.35;8.32;;;1.60;99.90;;;;;;6264932;23;20356;-80
2022/12/29 09:28:47;;;;;;;18.00;9.57;;;1.10;99.90;;;;;;6203705;23;20074;-81
2022/12/29 09:31:18;;;;;;;15.13;8.40;;;1.10;99.90;;;;;;6216877;23;20498;-81
2022/12/29 09:33:55;;;;;;;20.60;9.32;;;1.30;99.90;;;;;;6269965;23;20264;-82
2022/12/29 09:36:33;;;;;;;22.40;10.07;;;1.30;99.90;;;;;;6293924;23;20199;-80
2022/12/29 09:39:08;;;;;;;19.27;9.65;;;1.40;99.90;;;;;;6246848;23;20049;-80
2022/12/29 09:41:44;;;;;;;;;;;1.50;99.90;;;;;;6230145;23;20007;-77
2022/12/29 09:44:53;;;;;;;19.98;9.40;;;1.50;99.90;;;;;;6269410;23;19904;-82
2022/12/29 09:47:26;;;;;;;20.75;9.75;;;1.30;99.90;;;;;;6289928;23;20062;-84
2022/12/29 09:50:06;;;;;;;22.20;10.45;;;1.30;99.90;;;;;;6278903;23;20054;-79
2022/12/29 09:52:56;;;;;;;31.00;10.73;;;1.40;99.90;;;;;;6255781;23;20237;-78
2022/12/29 09:55:53;;;;;;;23.25;10.07;;;1.20;99.90;;;;;;6280845;23;20046;-80
2022/12/29 09:58:37;;;;;;;18.25;9.40;;;0.90;99.90;;;;;;6302283;23;20066;-80
2022/12/29 10:01:31;;;;;;;24.75;10.18;;;1.00;99.90;;;;;;6277929;23;20062;-81
2022/12/29 10:04:05;;;;;;;22.90;10.48;;;1.20;99.90;;;;;;6253761;23;20090;-81
2022/12/29 10:07:02;;;;;;;16.88;9.48;;;1.30;99.90;;;;;;6242973;23;20364;-77
2022/12/29 10:09:45;;;;;;;21.63;10.57;;;1.20;99.90;;;;;;6258273;23;20123;-82
2022/12/29 10:12:30;;;;;;;22.73;9.95;;;1.30;99.90;;;;;;6258565;23;20054;-79
2022/12/29 10:15:30;;;;;;;22.70;10.57;;;1.00;99.90;;;;;;6281722;23;20310;-80
2022/12/29 10:18:29;;;;;;;19.10;8.75;;;1.20;99.90;;;;;;6258226;23;20061;-79
2022/12/29 10:21:12;;;;;;;16.45;9.73;;;1.20;99.90;;;;;;6257316;23;20051;-79
2022/12/29 10:23:48;;;;;;;22.38;10.35;;;1.10;99.90;;;;;;6258007;23;20054;-77
2022/12/29 10:29:58;;;;;;;25.10;11.23;;;1.00;99.90;;;;;;6283366;23;20066;-79
2022/12/29 10:32:40;;;;;;;30.50;10.63;;;1.30;99.90;;;;;;6305146;23;20229;-78
2022/12/29 10:35:23;;;;;;;49.50;11.60;;;1.30;99.90;;;;;;6282856;23;20063;-78
2022/12/29 10:38:15;;;;;;;20.60;11.13;;;1.30;99.90;;;;;;6258269;23;20054;-79
2022/12/29 10:41:11;;;;;;;24.42;10.98;;;1.40;99.90;;;;;;6283793;23;20046;-76
2022/12/29 10:43:54;;;;;;;18.77;10.50;;;1.60;99.90;;;;;;6281320;23;20062;-79
2022/12/29 10:46:40;;;;;;;19.88;9.10;;;1.70;99.90;;;;;;6257530;23;20054;-76
2022/12/29 10:49:17;;;;;;;21.95;9.88;;;1.70;99.90;;;;;;6282114;23;20054;-80
2022/12/29 10:51:52;;;;;;;25.38;10.70;;;1.50;99.90;;;;;;6283060;23;20347;-77
2022/12/29 10:54:23;;;;;;;30.00;11.40;;;1.20;99.90;;;;;;6258878;23;20050;-79
2022/12/29 10:57:04;;;;;;;39.72;10.80;;;1.30;99.90;;;;;;6282084;23;20239;-76
2022/12/29 10:59:36;;;;;;;27.80;12.05;;;1.50;99.90;;;;;;6258163;23;20209;-77
2022/12/29 11:02:11;;;;;;;27.45;11.75;;;1.50;99.90;;;;;;6258065;23;20066;-76
2022/12/29 11:05:02;;;;;;;32.42;11.65;;;1.50;99.90;;;;;;6249459;23;20261;-76
2022/12/29 11:07:33;;;;;;;27.25;11.80;;;1.60;99.90;;;;;;6255715;23;20058;-80
2022/12/29 11:10:39;;;;;;;24.83;12.85;;;1.50;99.90;;;;;;6302462;23;20062;-77
2022/12/29 11:13:25;;;;;;;22.48;11.68;;;1.50;99.90;;;;;;6303738;23;20007;-76
2022/12/29 11:16:02;;;;;;;24.33;11.77;;;1.50;99.90;;;;;;6279839;23;20053;-77
2022/12/29 11:18:39;;;;;;;26.27;13.82;;;1.60;99.90;;;;;;6254084;23;20054;-76
2022/12/29 11:21:29;;;;;;;34.85;9.82;;;1.80;99.90;;;;;;6278526;23;20064;-77
2022/12/29 11:24:06;;;;;;;36.47;12.05;;;1.80;99.90;;;;;;6281430;23;20368;-78
2022/12/29 11:26:44;;;;;;;28.95;12.23;;;1.70;99.90;;;;;;6303911;23;20054;-76
2022/12/29 11:29:27;;;;;;;23.30;12.27;;;1.80;99.90;;;;;;6383090;23;20082;-79
2022/12/29 11:32:09;;;;;;;27.08;12.80;;;1.80;99.90;;;;;;6257030;23;20073;-78
2022/12/29 11:34:43;;;;;;;24.13;12.38;;;1.70;99.90;;;;;;6279993;23;20195;-79
2022/12/29 11:37:38;;;;;;;22.88;12.68;;;1.70;99.90;;;;;;6254205;23;20054;-81
2022/12/29 11:40:18;;;;;;;27.95;12.82;;;1.80;99.90;;;;;;6278558;23;20062;-77
2022/12/29 11:43:03;;;;;;;63.40;13.32;;;1.70;99.90;;;;;;6253683;23;20065;-78
2022/12/29 11:45:44;;;;;;;29.92;12.90;;;1.70;99.90;;;;;;6279592;23;20058;-77
2022/12/29 11:48:20;;;;;;;42.35;12.95;;;1.80;99.90;;;;;;6279158;23;20062;-78
2022/12/29 11:50:55;;;;;;;19.85;10.65;;;1.60;99.90;;;;;;6255486;23;20049;-79
2022/12/29 11:53:42;;;;;;;64.65;12.27;;;1.50;99.90;;;;;;6280670;23;20003;-77
2022/12/29 11:56:22;;;;;;;42.38;12.05;;;1.30;99.90;;;;;;6279691;23;20062;-80
2022/12/29 11:59:01;;;;;;;50.03;13.02;;;1.30;99.90;;;;;;6281300;23;20058;-76
2022/12/29 12:01:38;;;;;;;31.33;13.02;;;1.40;99.90;;;;;;6277344;23;20070;-76
2022/12/29 12:04:26;;;;;;;34.85;12.90;;;1.50;99.90;;;;;;6256799;23;20050;-75
2022/12/29 12:07:13;;;;;;;34.05;12.93;;;1.70;99.90;;;;;;6219889;23;20062;-77
2022/12/29 12:10:01;;;;;;;35.05;13.98;;;1.70;99.90;;;;;;6280035;23;20228;-76
2022/12/29 12:12:36;;;;;;;30.25;12.88;;;1.80;99.90;;;;;;6254510;23;20050;-80
2022/12/29 12:15:20;;;;;;;33.10;13.50;;;2.00;99.90;;;;;;6253774;23;20006;-79
2022/12/29 12:18:01;;;;;;;33.80;14.00;;;1.90;99.90;;;;;;6256502;23;20058;-80
2022/12/29 12:20:38;;;;;;;45.55;13.55;;;2.00;99.90;;;;;;6278547;23;20058;-78
2022/12/29 12:23:44;;;;;;;44.92;13.65;;;1.90;99.90;;;;;;6280369;23;20049;-78
2022/12/29 12:26:28;;;;;;;25.05;12.93;;;2.10;99.90;;;;;;6295878;22;20074;-78
2022/12/29 12:29:00;;;;;;;22.75;11.98;;;2.20;99.90;;;;;;6289716;23;20043;-78
2022/12/29 12:31:57;;;;;;;34.58;13.93;;;2.00;99.90;;;;;;6281140;23;20472;-81
2022/12/29 12:34:48;;;;;;;26.38;11.82;;;2.10;99.90;;;;;;6235167;23;20530;-79
2022/12/29 12:37:46;;;;;;;30.40;13.52;;;2.30;99.90;;;;;;6246824;23;20013;-78
2022/12/29 12:40:46;;;;;;;45.05;13.02;;;2.40;99.90;;;;;;6278767;23;20082;-80
2022/12/29 12:43:40;;;;;;;33.67;14.38;;;2.30;99.90;;;;;;6197709;23;20068;-79
2022/12/29 12:46:27;;;;;;;28.00;13.48;;;2.20;99.90;;;;;;6242375;23;20074;-79
2022/12/29 12:49:19;;;;;;;39.80;13.57;;;2.30;99.90;;;;;;6255625;23;20050;-79
2022/12/29 12:52:22;;;;;;;27.58;14.27;;;2.40;99.90;;;;;;6256107;23;20058;-80
2022/12/29 12:55:13;;;;;;;29.77;14.98;;;2.70;99.90;;;;;;6255123;23;20488;-84
2022/12/29 12:58:07;;;;;;;28.17;12.80;;;3.40;99.90;;;;;;6254814;23;20058;-83
2022/12/29 13:00:51;;;;;;;24.85;11.77;;;4.10;99.90;;;;;;6251976;23;20058;-79
2022/12/29 13:03:35;;;;;;;23.90;12.35;;;4.50;99.90;;;;;;6280499;23;20007;-78
2022/12/29 13:06:44;;;;;;;20.88;11.93;;;3.60;99.90;;;;;;6248370;23;20069;-77
2022/12/29 13:09:43;;;;;;;23.85;12.52;;;3.20;99.90;;;;;;6279225;23;20062;-80
2022/12/29 13:12:58;;;;;;;23.20;12.00;;;3.60;99.90;;;;;;6281382;23;20066;-80
2022/12/29 13:15:29;;;;;;;22.13;11.40;;;4.00;99.90;;;;;;6294554;23;20013;-79
2022/12/29 13:18:37;;;;;;;22.17;11.75;;;4.00;99.90;;;;;;6343373;23;20058;-78
2022/12/29 13:21:41;;;;;;;17.42;9.77;;;4.00;99.90;;;;;;6294299;23;20519;-81
2022/12/29 13:24:27;;;;;;;19.77;10.98;;;4.00;99.90;;;;;;6293919;23;20065;-77
2022/12/29 13:27:09;;;;;;;22.42;11.85;;;4.20;99.90;;;;;;6294206;23;20402;-79
2022/12/29 13:30:15;;;;;;;23.05;11.68;;;4.30;99.90;;;;;;6318161;23;20061;-76
2022/12/29 13:32:57;;;;;;;17.38;8.52;;;3.60;99.90;;;;;;6288894;23;20072;-77
2022/12/29 13:35:42;;;;;;;21.58;10.98;;;3.30;99.90;;;;;;6318951;23;20081;-80
2022/12/29 13:38:16;;;;;;;;;;;3.20;99.90;;;;;;6295929;23;20541;-78
2022/12/29 13:40:52;;;;;;;12.85;7.30;;;3.00;99.90;;;;;;6342860;23;19956;-81
2022/12/29 13:43:31;;;;;;;21.42;11.90;;;2.80;99.90;;;;;;6319269;23;20064;-79
2022/12/29 13:46:14;;;;;;;23.05;10.70;;;2.80;99.90;;;;;;6318710;23;20061;-75
2022/12/29 13:49:14;;;;;;;24.10;11.02;;;2.70;99.90;;;;;;6294491;23;20072;-77
2022/12/29 13:52:06;;;;;;;21.92;11.70;;;2.60;99.90;;;;;;6236012;23;20075;-77
2022/12/29 13:55:00;;;;;;;25.13;11.50;;;2.70;99.90;;;;;;6244290;23;20003;-76
2022/12/29 13:57:53;;;;;;;22.50;11.98;;;2.80;99.90;;;;;;6253806;23;20050;-77
2022/12/29 14:00:30;;;;;;;20.73;11.32;;;2.80;99.90;;;;;;6253168;23;20054;-82
2022/12/29 14:03:10;;;;;;;20.63;11.32;;;2.80;99.90;;;;;;6280660;23;20050;-79
2022/12/29 14:05:49;;;;;;;24.10;12.57;;;2.80;99.90;;;;;;6268602;23;20082;-81
2022/12/29 14:08:20;;;;;;;24.10;12.63;;;2.70;99.90;;;;;;6284098;23;20042;-76
2022/12/29 14:10:52;;;;;;;21.00;12.25;;;2.70;99.90;;;;;;6277677;23;20085;-81
2022/12/29 14:13:25;;;;;;;22.52;11.52;;;2.70;99.90;;;;;;6253748;23;20628;-80
2022/12/29 14:16:09;;;;;;;25.05;11.90;;;2.60;99.90;;;;;;6254749;23;20066;-79